createdAt,value
2018-06-05T00:01:48.246Z,36.73
2018-06-05T00:04:16.689Z,37.17
2018-06-05T00:06:45.197Z,38.20
2018-06-05T00:09:13.621Z,43.93
2018-06-05T00:11:42.215Z,39.57
2018-06-05T00:14:10.672Z,43.87
2018-06-05T00:16:39.132Z,45.07
2018-06-05T00:19:07.588Z,44.43
2018-06-05T00:21:36.038Z,39.97
2018-06-05T00:24:04.476Z,42.73
2018-06-05T00:26:32.958Z,37.43
2018-06-05T00:29:01.432Z,44.60
2018-06-05T00:31:29.955Z,65.67
2018-06-05T00:33:58.579Z,47.37
2018-06-05T00:36:27.032Z,49.90
2018-06-05T00:38:55.486Z,46.47
2018-06-05T00:41:23.943Z,45.93
2018-06-05T00:43:52.520Z,51.50
2018-06-05T00:46:20.966Z,50.17
2018-06-05T00:48:49.507Z,48.40
2018-06-05T00:51:29.181Z,42.60
2018-06-05T00:53:57.722Z,47.07
2018-06-05T00:56:26.375Z,39.67
2018-06-05T00:58:54.963Z,44.77
2018-06-05T01:01:23.551Z,47.70
2018-06-05T01:03:52.025Z,48.40
2018-06-05T01:06:20.577Z,52.47
2018-06-05T01:08:49.197Z,51.00
2018-06-05T01:11:18.314Z,50.50
2018-06-05T01:13:46.823Z,46.63
2018-06-05T01:16:15.340Z,49.13
2018-06-05T01:18:43.848Z,60.47
2018-06-05T01:21:12.291Z,56.90
2018-06-05T01:23:40.831Z,56.63
2018-06-05T01:26:09.337Z,57.87
2018-06-05T01:28:37.856Z,57.03
2018-06-05T01:31:06.672Z,59.13
2018-06-05T01:33:35.500Z,66.00
2018-06-05T01:36:03.981Z,58.70
2018-06-05T01:38:32.467Z,59.80
2018-06-05T01:41:00.956Z,60.60
2018-06-05T01:43:29.453Z,63.37
2018-06-05T01:45:58.116Z,61.70
2018-06-05T01:48:26.550Z,68.87
2018-06-05T01:50:55.033Z,68.30
2018-06-05T01:53:23.510Z,60.60
2018-06-05T01:55:52.002Z,65.90
2018-06-05T01:58:20.458Z,62.03
2018-06-05T02:00:48.964Z,73.93
2018-06-05T02:03:17.485Z,74.27
2018-06-05T02:05:45.915Z,79.00
2018-06-05T02:08:14.461Z,83.80
2018-06-05T02:10:42.948Z,75.10
2018-06-05T02:13:11.424Z,79.47
2018-06-05T02:15:39.871Z,91.13
2018-06-05T02:18:08.544Z,87.07
2018-06-05T02:20:36.995Z,84.60
2018-06-05T02:23:05.556Z,93.37
2018-06-05T02:25:34.241Z,85.50
2018-06-05T02:28:02.724Z,97.93
2018-06-05T02:30:31.277Z,95.03
2018-06-05T02:32:59.732Z,91.30
2018-06-05T02:35:28.239Z,101.43
2018-06-05T02:37:56.740Z,96.53
2018-06-05T02:40:25.376Z,105.70
2018-06-05T02:42:53.673Z,104.37
2018-06-05T02:45:22.204Z,120.27
2018-06-05T02:47:50.692Z,104.47
2018-06-05T02:50:19.234Z,102.63
2018-06-05T02:52:47.710Z,103.40
2018-06-05T02:55:16.263Z,111.53
2018-06-05T02:57:44.913Z,120.50
2018-06-05T03:00:13.588Z,124.67
2018-06-05T03:02:42.079Z,103.33
2018-06-05T03:05:10.524Z,99.27
2018-06-05T03:07:39.056Z,106.97
2018-06-05T03:10:07.738Z,114.17
2018-06-05T03:12:36.278Z,117.27
2018-06-05T03:15:05.167Z,123.43
2018-06-05T03:17:33.681Z,129.33
2018-06-05T03:20:02.129Z,115.30
2018-06-05T03:22:30.782Z,113.37
2018-06-05T03:24:59.290Z,145.73
2018-06-05T03:27:27.800Z,141.90
2018-06-05T03:29:56.474Z,195.87
2018-06-05T03:32:24.928Z,129.23
2018-06-05T03:34:53.409Z,139.27
2018-06-05T03:37:21.899Z,125.67
2018-06-05T03:39:50.345Z,116.10
2018-06-05T03:42:18.468Z,115.90
2018-06-05T03:44:47.080Z,123.90
2018-06-05T03:47:15.536Z,122.20
2018-06-05T03:49:44.046Z,111.33
2018-06-05T03:52:12.529Z,115.17
2018-06-05T03:54:40.985Z,104.90
2018-06-05T03:57:09.591Z,112.40
2018-06-05T03:59:38.070Z,102.73
2018-06-05T04:02:06.624Z,111.23
2018-06-05T04:04:35.166Z,106.57
2018-06-05T04:07:03.708Z,103.53
2018-06-05T04:09:31.930Z,94.80
2018-06-05T04:12:00.521Z,106.03
2018-06-05T04:14:29.075Z,103.30
2018-06-05T04:16:57.581Z,112.60
2018-06-05T04:19:26.036Z,100.30
2018-06-05T04:21:54.434Z,100.00
2018-06-05T04:24:22.903Z,97.73
2018-06-05T04:26:51.376Z,95.03
2018-06-05T04:29:19.926Z,102.20
2018-06-05T04:31:48.149Z,100.43
2018-06-05T04:34:16.647Z,101.70
2018-06-05T04:36:45.214Z,107.33
2018-06-05T04:39:13.834Z,109.60
2018-06-05T04:41:42.538Z,110.33
2018-06-05T04:44:11.118Z,109.53
2018-06-05T04:46:39.620Z,110.83
2018-06-05T04:49:07.847Z,118.17
2018-06-05T04:51:36.321Z,119.77
2018-06-05T04:54:04.821Z,115.20
2018-06-05T04:56:33.431Z,111.73
2018-06-05T04:59:02.044Z,116.63
2018-06-05T05:01:30.561Z,118.37
2018-06-05T05:03:59.014Z,115.77
2018-06-05T05:06:27.486Z,103.77
2018-06-05T05:08:56.022Z,118.63
2018-06-05T05:11:25.120Z,111.00
2018-06-05T05:13:53.339Z,120.73
2018-06-05T05:16:22.700Z,112.23
2018-06-05T05:18:51.979Z,121.40
2018-06-05T05:21:22.747Z,104.27
2018-06-05T05:23:51.197Z,104.87
2018-06-05T05:26:19.685Z,97.43
2018-06-05T05:28:48.221Z,97.13
2018-06-05T05:31:16.721Z,99.27
2018-06-05T05:33:45.212Z,101.13
2018-06-05T05:36:13.946Z,86.70
2018-06-05T05:38:42.646Z,99.93
2018-06-05T05:41:11.110Z,90.17
2018-06-05T05:43:39.641Z,105.93
2018-06-05T05:46:08.070Z,94.07
2018-06-05T05:48:36.548Z,88.70
2018-06-05T05:51:05.033Z,98.00
2018-06-05T05:53:33.504Z,91.93
2018-06-05T05:56:02.038Z,89.43
2018-06-05T05:58:30.501Z,81.23
2018-06-05T06:00:59.044Z,82.30
2018-06-05T06:03:27.537Z,71.23
2018-06-05T06:05:56.014Z,77.90
2018-06-05T06:08:26.833Z,69.77
2018-06-05T06:10:55.391Z,68.00
2018-06-05T06:13:24.509Z,67.20
2018-06-05T06:15:52.972Z,68.30
2018-06-05T06:18:21.440Z,71.97
2018-06-05T06:20:50.454Z,64.13
2018-06-05T06:23:25.287Z,59.07
2018-06-05T06:25:53.767Z,63.80
2018-06-05T06:28:21.949Z,63.63
2018-06-05T06:30:54.036Z,59.93
2018-06-05T06:33:22.510Z,60.93
2018-06-05T06:35:50.948Z,60.47
2018-06-05T06:38:19.507Z,63.47
2018-06-05T06:40:48.066Z,61.40
2018-06-05T06:43:16.573Z,62.97
2018-06-05T06:45:45.123Z,57.20
2018-06-05T06:48:13.652Z,56.40
2018-06-05T06:50:42.390Z,68.00
2018-06-05T06:53:10.919Z,58.83
2018-06-05T06:55:39.436Z,61.87
2018-06-05T06:58:07.934Z,60.97
2018-06-05T07:00:37.369Z,63.20
2018-06-05T07:03:06.073Z,61.83
2018-06-05T07:05:34.776Z,59.33
2018-06-05T07:08:02.890Z,64.40
2018-06-05T07:10:32.115Z,58.30
2018-06-05T07:13:00.736Z,54.50
2018-06-05T07:15:29.320Z,55.03
2018-06-05T07:17:57.935Z,58.03
2018-06-05T07:20:26.435Z,50.70
2018-06-05T07:22:54.890Z,58.13
2018-06-05T07:25:23.427Z,58.97
2018-06-05T07:27:51.608Z,54.13
2018-06-05T07:30:20.368Z,60.10
2018-06-05T07:32:48.986Z,54.70
2018-06-05T07:35:17.836Z,58.40
2018-06-05T07:37:46.349Z,59.83
2018-06-05T07:40:14.957Z,59.47
2018-06-05T07:42:43.604Z,63.23
2018-06-05T07:45:12.303Z,54.73
2018-06-05T07:47:40.882Z,51.53
2018-06-05T07:50:09.499Z,56.70
2018-06-05T07:52:38.096Z,55.80
2018-06-05T07:55:06.566Z,50.67
2018-06-05T07:57:35.240Z,51.30
2018-06-05T08:00:04.285Z,53.97
2018-06-05T08:02:32.842Z,49.70
2018-06-05T08:05:01.501Z,45.70
2018-06-05T08:07:30.118Z,57.30
2018-06-05T08:09:59.010Z,46.03
2018-06-05T08:12:27.729Z,46.17
2018-06-05T08:14:57.993Z,49.23
2018-06-05T08:17:26.379Z,51.73
2018-06-05T08:19:54.869Z,44.00
2018-06-05T08:22:24.261Z,46.60
2018-06-05T08:24:52.845Z,47.90
2018-06-05T08:27:21.335Z,49.33
2018-06-05T08:29:49.858Z,47.47
2018-06-05T08:32:18.292Z,55.40
2018-06-05T08:34:46.753Z,56.80
2018-06-05T08:37:15.271Z,45.77
2018-06-05T08:39:43.895Z,50.27
2018-06-05T08:42:12.420Z,45.20
2018-06-05T08:44:40.975Z,48.87
2018-06-05T08:47:09.407Z,44.87
2018-06-05T08:49:37.931Z,51.97
2018-06-05T08:52:06.539Z,44.70
2018-06-05T08:54:35.232Z,43.00
2018-06-05T08:57:03.741Z,44.87
2018-06-05T08:59:32.240Z,45.60
2018-06-05T09:02:00.853Z,48.27
2018-06-05T09:04:29.335Z,42.83
2018-06-05T09:06:57.804Z,51.20
2018-06-05T09:09:26.416Z,42.20
2018-06-05T09:11:55.076Z,35.53
2018-06-05T09:14:23.551Z,40.20
2018-06-05T09:16:52.027Z,48.30
2018-06-05T09:19:20.548Z,46.03
2018-06-05T09:21:49.186Z,45.87
2018-06-05T09:24:17.672Z,45.70
2018-06-05T09:26:46.158Z,43.87
2018-06-05T09:29:14.669Z,42.67
2018-06-05T09:31:43.219Z,36.90
2018-06-05T09:34:11.704Z,42.87
2018-06-05T09:36:40.343Z,40.23
2018-06-05T09:39:09.742Z,53.27
2018-06-05T09:41:37.958Z,44.90
2018-06-05T09:44:06.555Z,47.47
2018-06-05T09:46:35.089Z,43.60
2018-06-05T09:49:03.598Z,44.00
2018-06-05T09:51:32.224Z,37.27
2018-06-05T09:54:00.767Z,42.57
2018-06-05T09:56:29.293Z,38.77
2018-06-05T09:58:57.920Z,46.57
2018-06-05T10:01:26.452Z,55.07
2018-06-05T10:03:55.156Z,45.77
2018-06-05T10:06:23.579Z,48.13
2018-06-05T10:08:52.140Z,41.20
2018-06-05T10:11:20.587Z,40.13
2018-06-05T10:13:49.181Z,41.35
2018-06-05T10:16:17.692Z,44.15
2018-06-05T10:18:46.197Z,45.80
2018-06-05T10:21:14.690Z,43.58
2018-06-05T10:23:45.063Z,43.40
2018-06-05T10:26:13.259Z,47.40
2018-06-05T10:28:41.707Z,43.13
2018-06-05T10:31:10.263Z,45.00
2018-06-05T10:33:39.436Z,47.87
2018-06-05T10:36:07.920Z,51.67
2018-06-05T10:38:36.374Z,47.27
2018-06-05T10:41:04.938Z,43.10
2018-06-05T10:43:33.588Z,42.10
2018-06-05T10:46:02.137Z,48.37
2018-06-05T10:48:30.736Z,50.93
2018-06-05T10:50:59.294Z,52.67
2018-06-05T10:53:27.856Z,46.63
2018-06-05T10:55:56.301Z,47.50
2018-06-05T10:58:24.837Z,46.13
2018-06-05T11:00:53.356Z,45.80
2018-06-05T11:03:21.882Z,59.35
2018-06-05T11:05:50.565Z,48.40
2018-06-05T11:08:19.239Z,51.73
2018-06-05T11:10:47.744Z,49.83
2018-06-05T11:13:16.236Z,48.73
2018-06-05T11:15:44.777Z,47.33
2018-06-05T11:18:13.498Z,50.90
2018-06-05T11:20:42.056Z,51.60
2018-06-05T11:23:10.562Z,54.03
2018-06-05T11:25:39.057Z,56.23
2018-06-05T11:28:07.561Z,57.23
2018-06-05T11:30:36.112Z,59.23
2018-06-05T11:33:04.581Z,49.10
2018-06-05T11:35:33.078Z,53.27
2018-06-05T11:38:01.618Z,54.07
2018-06-05T11:40:30.226Z,57.43
2018-06-05T11:42:58.673Z,54.30
2018-06-05T11:45:27.115Z,54.90
2018-06-05T11:47:55.646Z,48.43
2018-06-05T11:50:24.073Z,49.17
2018-06-05T11:52:52.606Z,55.30
2018-06-05T11:55:21.073Z,61.43
2018-06-05T11:57:49.547Z,59.00
2018-06-05T12:00:18.365Z,52.93
2018-06-05T12:02:46.879Z,57.83
2018-06-05T12:05:15.373Z,56.50
2018-06-05T12:07:43.931Z,54.90
2018-06-05T12:10:12.503Z,55.70
2018-06-05T12:12:41.037Z,53.07
2018-06-05T12:15:09.364Z,60.80
2018-06-05T12:17:37.868Z,55.13
2018-06-05T12:20:06.424Z,60.73
2018-06-05T12:22:34.964Z,52.80
2018-06-05T12:25:03.513Z,54.47
2018-06-05T12:27:32.016Z,61.53
2018-06-05T12:30:00.650Z,56.10
2018-06-05T12:32:29.134Z,56.00
2018-06-05T12:34:57.613Z,54.27
2018-06-05T12:37:26.090Z,52.70
2018-06-05T12:39:54.540Z,64.00
2018-06-05T12:42:23.051Z,51.93
2018-06-05T12:44:51.530Z,53.77
2018-06-05T12:47:19.960Z,57.10
2018-06-05T12:49:48.189Z,61.37
2018-06-05T12:52:16.721Z,58.50
2018-06-05T12:54:45.238Z,57.50
2018-06-05T12:57:13.820Z,58.13
2018-06-05T12:59:42.279Z,63.83
2018-06-05T13:02:10.766Z,57.97
2018-06-05T13:04:39.481Z,66.27
2018-06-05T13:07:08.045Z,68.53
2018-06-05T13:09:36.516Z,73.63
2018-06-05T13:12:05.085Z,63.83
2018-06-05T13:14:33.513Z,68.77
2018-06-05T13:17:01.991Z,67.60
2018-06-05T13:19:30.552Z,63.53
2018-06-05T13:21:59.045Z,73.10
2018-06-05T13:24:27.666Z,72.13
2018-06-05T13:27:06.811Z,70.57
2018-06-05T13:29:36.485Z,77.43
2018-06-05T13:32:05.137Z,69.30
2018-06-05T13:34:33.678Z,70.87
2018-06-05T13:37:02.184Z,68.37
2018-06-05T13:39:30.727Z,68.87
2018-06-05T13:41:59.328Z,68.27
2018-06-05T13:44:28.031Z,86.37
2018-06-05T13:46:56.495Z,73.90
2018-06-05T13:49:24.783Z,76.53
2018-06-05T13:51:53.330Z,272.47
2018-06-05T13:54:21.786Z,75.73
2018-06-05T13:56:50.304Z,68.43
2018-06-05T13:59:18.716Z,75.83
2018-06-05T14:01:47.321Z,73.40
2018-06-05T14:04:15.940Z,68.30
2018-06-05T14:06:44.436Z,72.20
2018-06-05T14:09:12.663Z,68.67
2018-06-05T14:11:41.081Z,71.20
2018-06-05T14:14:09.506Z,73.90
2018-06-05T14:16:38.041Z,67.10
2018-06-05T14:19:06.588Z,73.47
2018-06-05T14:21:35.159Z,72.93
2018-06-05T14:24:04.416Z,73.40
2018-06-05T14:26:32.869Z,72.73
2018-06-05T14:29:01.361Z,75.33
2018-06-05T14:31:30.629Z,92.43
2018-06-05T14:33:59.129Z,81.27
2018-06-05T14:36:27.814Z,80.43
2018-06-05T14:38:56.739Z,78.20
2018-06-05T14:41:25.362Z,85.93
2018-06-05T14:43:53.829Z,78.80
2018-06-05T14:46:22.307Z,90.17
2018-06-05T14:48:50.849Z,85.23
2018-06-05T14:51:19.342Z,89.77
2018-06-05T14:53:47.796Z,92.63
2018-06-05T14:56:16.998Z,91.07
2018-06-05T14:58:45.546Z,81.47
2018-06-05T15:01:14.073Z,83.37
2018-06-05T15:03:42.538Z,91.97
2018-06-05T15:06:11.009Z,93.03
2018-06-05T15:08:39.488Z,88.43
2018-06-05T15:11:07.998Z,98.80
2018-06-05T15:13:36.480Z,91.57
2018-06-05T15:16:05.196Z,83.77
2018-06-05T15:18:33.707Z,88.53
2018-06-05T15:21:02.147Z,83.83
2018-06-05T15:23:30.749Z,95.77
2018-06-05T15:25:59.339Z,91.97
2018-06-05T15:28:27.774Z,84.60
2018-06-05T15:30:55.934Z,90.23
2018-06-05T15:33:24.389Z,139.00
2018-06-05T15:35:53.006Z,81.80
2018-06-05T15:38:21.459Z,86.77
2018-06-05T15:40:49.966Z,91.20
2018-06-05T15:43:18.421Z,95.00
2018-06-05T15:45:46.924Z,87.53
2018-06-05T15:48:15.481Z,92.00
2018-06-05T15:50:44.020Z,95.17
2018-06-05T15:53:12.621Z,88.10
2018-06-05T15:55:41.164Z,97.30
2018-06-05T15:58:09.661Z,75.87
2018-06-05T16:00:38.126Z,83.57
2018-06-05T16:03:06.658Z,82.03
2018-06-05T16:05:35.309Z,79.17
2018-06-05T16:08:03.791Z,87.77
2018-06-05T16:10:32.295Z,81.40
2018-06-05T16:13:00.835Z,134.97
2018-06-05T16:15:28.984Z,83.27
2018-06-05T16:17:57.562Z,88.40
2018-06-05T16:20:26.224Z,75.07
2018-06-05T16:22:54.706Z,69.63
2018-06-05T16:25:23.308Z,82.60
2018-06-05T16:27:51.889Z,72.23
2018-06-05T16:30:21.445Z,73.63
2018-06-05T16:32:49.990Z,77.07
2018-06-05T16:35:18.464Z,72.37
2018-06-05T16:37:46.914Z,96.40
2018-06-05T16:40:15.404Z,72.10
2018-06-05T16:42:43.884Z,76.93
2018-06-05T16:45:12.367Z,69.13
2018-06-05T16:47:40.821Z,87.27
2018-06-05T16:50:09.342Z,227.30
2018-06-05T16:52:37.996Z,82.83
2018-06-05T16:55:06.581Z,92.40
2018-06-05T16:57:35.190Z,75.97
2018-06-05T17:00:03.801Z,82.53
2018-06-05T17:02:32.243Z,77.37
2018-06-05T17:05:00.772Z,86.53
2018-06-05T17:07:29.243Z,89.53
2018-06-05T17:09:57.669Z,86.60
2018-06-05T17:12:26.220Z,98.53
2018-06-05T17:14:54.681Z,92.53
2018-06-05T17:17:23.352Z,82.17
2018-06-05T17:19:51.857Z,78.93
2018-06-05T17:22:21.167Z,79.50
2018-06-05T17:24:49.627Z,79.83
2018-06-05T17:27:18.306Z,94.63
2018-06-05T17:29:46.919Z,78.63
2018-06-05T17:32:15.517Z,79.97
2018-06-05T17:34:44.126Z,85.33
2018-06-05T17:37:12.753Z,81.03
2018-06-05T17:39:41.269Z,79.47
2018-06-05T17:42:09.947Z,84.00
2018-06-05T17:44:38.643Z,77.30
2018-06-05T17:47:07.237Z,82.00
2018-06-05T17:49:35.746Z,77.20
2018-06-05T17:52:04.376Z,77.70
2018-06-05T17:54:32.973Z,76.40
2018-06-05T17:57:01.677Z,73.00
2018-06-05T17:59:30.189Z,69.87
2018-06-05T18:01:58.995Z,71.60
2018-06-05T18:04:27.576Z,77.77
2018-06-05T18:06:56.094Z,71.97
2018-06-05T18:09:24.630Z,61.03
2018-06-05T18:11:53.335Z,75.17
2018-06-05T18:14:21.797Z,74.87
2018-06-05T18:16:50.377Z,77.43
2018-06-05T18:19:18.893Z,72.53
2018-06-05T18:21:47.402Z,69.90
2018-06-05T18:24:16.380Z,79.70
2018-06-05T18:26:44.877Z,70.70
2018-06-05T18:29:13.542Z,70.13
2018-06-05T18:31:42.083Z,71.07
2018-06-05T18:34:10.725Z,81.90
2018-06-05T18:36:39.279Z,79.30
2018-06-05T18:39:08.813Z,75.70
2018-06-05T18:41:37.377Z,80.97
2018-06-05T18:44:07.155Z,80.77
2018-06-05T18:46:36.489Z,78.27
2018-06-05T18:49:06.076Z,92.53
2018-06-05T18:51:35.737Z,84.93
2018-06-05T18:54:04.334Z,86.10
2018-06-05T18:56:32.817Z,92.23
2018-06-05T18:59:01.304Z,90.30
2018-06-05T19:01:30.275Z,86.93
2018-06-05T19:03:58.786Z,90.40
2018-06-05T19:06:27.206Z,89.67
2018-06-05T19:08:55.789Z,100.53
2018-06-05T19:11:24.866Z,95.93
2018-06-05T19:13:53.707Z,97.23
2018-06-05T19:16:22.701Z,106.77
2018-06-05T19:18:51.164Z,108.57
2018-06-05T19:21:19.898Z,100.93
2018-06-05T19:23:48.834Z,79.50
2018-06-05T19:26:18.193Z,79.63
2018-06-05T19:28:50.259Z,80.23
2018-06-05T19:31:18.914Z,86.40
2018-06-05T19:33:47.480Z,76.93
2018-06-05T19:36:16.178Z,77.37
2018-06-05T19:38:44.817Z,74.63
2018-06-05T19:41:13.412Z,75.60
2018-06-05T19:43:42.101Z,72.77
2018-06-05T19:46:11.070Z,74.17
2018-06-05T19:48:39.703Z,65.37
2018-06-05T19:51:08.287Z,86.53
2018-06-05T19:53:36.850Z,79.77
2018-06-05T19:56:05.856Z,85.70
2018-06-05T19:58:34.574Z,86.90
2018-06-05T20:01:03.278Z,72.53
2018-06-05T20:03:31.949Z,64.17
2018-06-05T20:06:00.617Z,67.83
2018-06-05T20:08:29.139Z,71.93
2018-06-05T20:10:58.209Z,67.23
2018-06-05T20:13:27.154Z,63.70
2018-06-05T20:15:55.783Z,76.47
2018-06-05T20:18:24.381Z,74.47
2018-06-05T20:20:53.293Z,210.60
2018-06-05T20:23:22.049Z,129.03
2018-06-05T20:25:50.552Z,67.80
2018-06-05T20:28:18.873Z,77.20
2018-06-05T20:30:47.456Z,74.60
2018-06-05T20:33:15.983Z,65.60
2018-06-05T20:35:45.116Z,73.00
2018-06-05T20:38:13.900Z,66.83
2018-06-05T20:40:42.052Z,68.80
2018-06-05T20:43:10.556Z,69.63
2018-06-05T20:45:39.302Z,69.53
2018-06-05T20:48:07.914Z,74.30
2018-06-05T20:50:36.506Z,70.97
2018-06-05T20:53:05.204Z,74.23
2018-06-05T20:55:35.110Z,79.00
2018-06-05T20:58:03.844Z,69.67
2018-06-05T21:00:32.615Z,72.23
2018-06-05T21:03:01.148Z,72.80
2018-06-05T21:05:29.747Z,72.77
2018-06-05T21:07:58.241Z,69.90
2018-06-05T21:10:26.948Z,70.47
2018-06-05T21:12:55.447Z,73.60
2018-06-05T21:15:23.914Z,73.40
2018-06-05T21:17:52.368Z,80.50
2018-06-05T21:20:20.842Z,73.77
2018-06-05T21:22:49.348Z,78.57
2018-06-05T21:25:18.355Z,74.90
2018-06-05T21:27:46.871Z,73.50
2018-06-05T21:30:15.362Z,83.57
2018-06-05T21:32:43.837Z,89.40
2018-06-05T21:35:12.392Z,70.13
2018-06-05T21:37:40.976Z,74.30
2018-06-05T21:40:09.456Z,71.97
2018-06-05T21:42:38.279Z,79.77
2018-06-05T21:45:07.437Z,87.97
2018-06-05T21:47:35.873Z,83.93
2018-06-05T21:50:04.836Z,102.53
2018-06-05T21:52:32.981Z,88.63
2018-06-05T21:55:01.652Z,96.67
2018-06-05T21:57:30.198Z,95.67
2018-06-05T21:59:58.773Z,113.97
2018-06-05T22:02:27.193Z,100.17
2018-06-05T22:04:55.668Z,100.03
2018-06-05T22:07:24.368Z,102.37
2018-06-05T22:09:53.002Z,98.23
2018-06-05T22:12:21.782Z,107.70
2018-06-05T22:14:50.462Z,129.73
2018-06-05T22:17:19.012Z,104.13
2018-06-05T22:19:47.685Z,104.83
2018-06-05T22:22:16.250Z,124.97
2018-06-05T22:24:44.951Z,112.10
2018-06-05T22:27:13.408Z,111.93
2018-06-05T22:29:41.920Z,108.20
2018-06-05T22:32:10.504Z,109.07
2018-06-05T22:34:39.062Z,96.33
2018-06-05T22:37:07.904Z,110.40
2018-06-05T22:39:36.333Z,109.50
2018-06-05T22:42:05.241Z,105.93
2018-06-05T22:44:33.820Z,106.43
2018-06-05T22:47:02.745Z,118.30
2018-06-05T22:49:31.438Z,111.77
2018-06-05T22:52:00.039Z,109.17
2018-06-05T22:54:28.531Z,115.53
2018-06-05T22:56:57.493Z,112.63
2018-06-05T22:59:26.008Z,120.33
2018-06-05T23:01:54.495Z,122.30
2018-06-05T23:04:23.165Z,108.97
2018-06-05T23:06:51.689Z,125.50
2018-06-05T23:09:20.852Z,123.43
2018-06-05T23:11:49.700Z,125.30
2018-06-05T23:14:18.590Z,114.60
2018-06-05T23:16:47.339Z,126.03
2018-06-05T23:19:16.071Z,109.73
2018-06-05T23:21:44.750Z,118.10
2018-06-05T23:24:13.561Z,121.27
2018-06-05T23:26:42.693Z,132.77
2018-06-05T23:29:12.045Z,114.90
2018-06-05T23:31:40.744Z,123.90
2018-06-05T23:34:09.698Z,128.23
2018-06-05T23:36:38.274Z,123.10
2018-06-05T23:39:07.969Z,123.63
2018-06-05T23:41:36.461Z,131.00
2018-06-05T23:44:05.121Z,122.47
2018-06-05T23:46:33.557Z,115.07
2018-06-05T23:49:02.139Z,122.93
2018-06-05T23:51:30.681Z,121.37
2018-06-05T23:53:59.230Z,121.17
2018-06-05T23:56:27.996Z,128.83
2018-06-05T23:58:56.469Z,118.63
